Beaver Island, Michigan
Current Conditions -  °F | °C
As of 2:36 AM on Wednesday 22 Oct 2014 (Local Time) from KSJX Reporting Station
Clear Clear  
Wind Chill: 32°   Ceiling: Unl
Heat Index: 36°   Visibility: 10mi
Dew Point: 33°   Wind: 5mph
Humidity: 89%   Direction: 100°E
Pressure: 30.33"   Gusts: NA
Location:  45.64°N, 85.52°W
Report Text: KSJX 220636Z AUTO 10004KT 10SM CLR 02/00 A3033 RMK AO2 T00200003
Loading
Personal Weather Stations






























Interactive Weather Map
Tropical Storm Tracking
New forecast layout! Learn more

10-Day Weather Forecast

Advertisements
Track Severe Weather on mobile